Jacksonville, Georgia
Current Conditions -  °F | °C
As of 11:35 AM on Thursday 30 Oct 2014 (Local Time) from KFZG Reporting Station
Clear Clear  
Wind Chill: 65°   Ceiling: Unl
Heat Index: 65°   Visibility: 10mi
Dew Point: 47°   Wind: 3mph
Humidity: 51%   Direction: 340°NNW
Pressure: 30.05"   Gusts: NA
Location:  31.81°N, 82.98°W
Report Text: KFZG 301535Z AUTO 34003KT 10SM CLR 19/08 A3005 RMK AO2 T01860082
Loading
Personal Weather Stations






























Interactive Weather Map
Tropical Storm Tracking
New forecast layout! Learn more

10-Day Weather Forecast

Advertisements
Track Severe Weather on mobile